Time;durP1;ratioP1;P1;durP2;ratioP2;P2;SDS_P1;SDS_P2;PMS_P1;PMS_P2;Temp;Humidity;BMP_temperature;BMP_pressure;BME280_temperature;BME280_humidity;BME280_pressure;Samples;Min_cycle;Max_cycle;Signal;HPM_P1;HPM_P2
2022/12/22 03:27:22;;;;;;;52.78;24.17;;;;;;;-3.35;100.00;101047.06;4968178;28;20106;-76
2022/12/22 03:29:48;;;;;;;60.42;30.80;;;;;;;-3.70;100.00;100989.22;4971182;28;20035;-78
2022/12/22 03:32:13;;;;;;;83.00;32.58;;;;;;;-4.44;100.00;100927.00;4965284;28;20423;-76
2022/12/22 03:34:39;;;;;;;69.53;30.80;;;;;;;-3.45;100.00;101048.13;4963652;28;20042;-76
2022/12/22 03:37:04;;;;;;;76.72;25.73;;;;;;;-4.12;100.00;100928.28;4973824;28;20050;-75
2022/12/22 03:39:29;;;;;;;67.93;30.00;;;;;;;-3.32;100.00;101052.41;4983596;28;20037;-77
2022/12/22 03:47:23;;;;;;;64.18;25.10;;;;;;;-3.45;100.00;100996.81;4984619;28;20513;-78
2022/12/22 03:49:48;;;;;;;70.43;26.42;;;;;;;-4.06;100.00;100865.50;4986667;28;20077;-78
2022/12/22 03:52:14;;;;;;;61.53;28.80;;;;;;;-4.15;100.00;100872.59;4986919;28;20046;-77
2022/12/22 03:54:39;;;;;;;52.60;25.55;;;;;;;-3.44;100.00;100977.22;4987388;28;20056;-76
2022/12/22 03:57:05;;;;;;;65.97;23.42;;;;;;;-2.92;100.00;101060.13;5000101;28;20033;-76
2022/12/22 03:59:30;;;;;;;54.90;23.50;;;;;;;-3.78;100.00;100921.16;4986056;28;20082;-76
2022/12/22 04:01:56;;;;;;;56.35;22.05;;;;;;;-4.11;100.00;100864.31;4998314;28;20886;-76
2022/12/22 04:04:24;;;;;;;50.72;27.13;;;;;;;-3.05;100.00;101047.28;5004662;28;20116;-75
2022/12/22 04:06:50;;;;;;;58.30;26.40;;;;;;;-4.20;100.00;100942.25;5001996;28;20108;-76
2022/12/22 04:09:15;;;;;;;69.88;29.50;;;;;;;-3.81;100.00;101041.44;5003059;28;20045;-76
2022/12/22 04:14:25;;;;;;;57.60;25.08;;;;;;;-3.28;100.00;101064.66;5002652;28;20065;-78
2022/12/22 04:16:50;;;;;;;58.03;27.13;;;;;;;-4.15;100.00;100887.06;5001825;28;20510;-75
2022/12/22 04:19:16;;;;;;;58.95;22.77;;;;;;;-3.91;100.00;100910.88;5000749;28;20053;-76
2022/12/22 04:21:42;;;;;;;46.38;23.48;;;;;;;-3.30;100.00;101007.22;4983776;28;20053;-76
2022/12/22 04:24:08;;;;;;;56.08;26.40;;;;;;;-4.13;100.00;100932.50;4988825;28;20092;-78
2022/12/22 04:26:33;;;;;;;67.32;31.05;;;;;;;-3.47;100.00;101049.69;4999044;28;20513;-78
2022/12/22 04:28:59;;;;;;;54.53;23.58;;;;;;;-3.98;100.00;100985.56;5003293;28;20058;-77
2022/12/22 04:31:25;;;;;;;75.05;27.83;;;;;;;-4.84;100.00;100805.66;5001757;28;20137;-75
2022/12/22 04:33:50;;;;;;;68.40;28.27;;;;;;;-3.66;100.00;101029.63;4999286;28;20049;-75
2022/12/22 04:36:16;;;;;;;62.67;27.75;;;;;;;-3.78;100.00;101058.72;4998756;28;20042;-75
2022/12/22 04:38:42;;;;;;;52.58;26.00;;;;;;;-4.32;100.00;100912.47;4998972;28;20261;-77
2022/12/22 04:41:08;;;;;;;57.40;24.85;;;;;;;-3.50;100.00;101066.59;4999121;28;20429;-75
2022/12/22 04:43:33;;;;;;;49.55;22.80;;;;;;;-4.17;100.00;100948.47;5000264;28;20049;-76
2022/12/22 04:45:59;;;;;;;57.60;22.85;;;;;;;-4.06;100.00;100967.13;5001300;28;20053;-77
2022/12/22 04:48:27;;;;;;;49.67;22.63;;;;;;;-4.17;100.00;100952.69;4999109;28;21645;-76
2022/12/22 04:50:55;;;;;;;59.00;24.90;;;;;;;-4.17;100.00;100939.88;4999285;28;20191;-76
2022/12/22 04:53:21;;;;;;;58.33;22.58;;;;;;;-3.85;100.00;101006.13;4987250;28;20117;-77
2022/12/22 04:55:54;;;;;;;66.93;24.98;;;;;;;-3.85;100.00;101057.41;4992715;28;20084;-77
2022/12/22 04:58:20;;;;;;;52.88;23.83;;;;;;;-3.66;100.00;101057.84;4994534;28;20121;-77
2022/12/22 05:00:45;;;;;;;46.53;23.02;;;;;;;-3.78;100.00;101089.47;4979826;28;20449;-75
2022/12/22 05:03:11;;;;;;;57.80;24.75;;;;;;;-3.79;100.00;101095.38;4982138;28;20035;-75
2022/12/22 05:05:36;;;;;;;66.15;24.60;;;;;;;-3.95;100.00;101068.72;4980084;28;20053;-76
2022/12/22 05:08:03;;;;;;;64.20;23.63;;;;;;;-3.97;100.00;101071.94;4983771;28;20905;-78
2022/12/22 05:10:29;;;;;;;68.53;24.30;;;;;;;-3.69;100.00;101064.47;4983683;28;20049;-76
2022/12/22 05:12:55;;;;;;;70.45;24.98;;;;;;;-4.51;100.00;100905.19;4985351;28;20058;-76
2022/12/22 05:15:25;;;;;;;74.38;30.08;;;;;;;-4.27;100.00;100936.72;4991700;28;20039;-75
2022/12/22 05:17:51;;;;;;;52.10;25.13;;;;;;;-3.73;100.00;101039.41;4988407;28;20034;-75
2022/12/22 05:20:17;;;;;;;68.68;29.05;;;;;;;-4.29;100.00;100911.78;4984227;28;20042;-76
2022/12/22 05:22:43;;;;;;;62.03;24.90;;;;;;;-3.34;100.00;101071.94;4984988;28;20057;-76
2022/12/22 05:25:08;;;;;;;75.50;30.63;;;;;;;-3.23;100.00;101101.78;5012805;28;20140;-76
2022/12/22 05:27:34;;;;;;;65.07;27.20;;;;;;;-3.30;100.00;101068.81;4996046;28;20036;-78
2022/12/22 05:29:59;;;;;;;52.10;20.40;;;;;;;-3.48;100.00;101060.75;4980405;28;20038;-74
2022/12/22 05:32:25;;;;;;;49.22;23.88;;;;;;;-3.49;100.00;101076.03;4980252;28;20497;-76
2022/12/22 05:34:50;;;;;;;76.40;26.30;;;;;;;-3.61;100.00;101032.50;4963306;28;20069;-78
2022/12/22 05:37:16;;;;;;;68.55;29.45;;;;;;;-3.49;100.00;101045.25;4962866;28;20051;-76
2022/12/22 05:39:41;;;;;;;79.55;33.88;;;;;;;-3.53;100.00;101033.94;4980753;28;20046;-77
2022/12/22 05:42:07;;;;;;;55.30;22.40;;;;;;;-3.47;100.00;101059.97;4980936;28;20450;-77
2022/12/22 05:44:32;;;;;;;66.28;27.05;;;;;;;-3.90;100.00;100944.31;4980662;28;20104;-78
2022/12/22 05:46:58;;;;;;;64.38;22.75;;;;;;;-3.88;100.00;100940.16;4979032;28;20755;-79
2022/12/22 05:49:23;;;;;;;50.65;23.13;;;;;;;-3.23;100.00;101088.03;4983476;28;20057;-78
2022/12/22 05:51:50;;;;;;;50.70;24.42;;;;;;;-3.20;100.00;101062.59;4980640;28;20042;-76
2022/12/22 05:54:16;;;;;;;52.50;21.20;;;;;;;-3.88;100.00;100960.69;4982411;28;20050;-76
2022/12/22 05:56:41;;;;;;;64.25;23.77;;;;;;;-3.14;100.00;101085.19;4984162;28;20533;-77
2022/12/22 05:59:06;;;;;;;48.05;23.25;;;;;;;-3.07;100.00;101083.13;4981530;28;20084;-76
2022/12/22 06:01:32;;;;;;;58.90;26.55;;;;;;;-3.63;100.00;101063.19;4982927;28;20045;-77
2022/12/22 06:03:57;;;;;;;68.53;26.73;;;;;;;-4.40;100.00;100933.19;4990341;28;20148;-77
2022/12/22 06:06:23;;;;;;;60.08;27.02;;;;;;;-3.56;100.00;101068.72;4998225;28;20533;-76
2022/12/22 06:08:48;;;;;;;86.63;31.73;;;;;;;-3.90;100.00;101063.91;4980730;28;20062;-75
2022/12/22 06:11:17;;;;;;;47.78;25.30;;;;;;;-4.04;100.00;101034.75;4981162;28;20058;-77
2022/12/22 06:13:43;;;;;;;50.42;23.58;;;;;;;-4.25;100.00;101000.88;4971808;28;20123;-77
2022/12/22 06:16:09;;;;;;;71.18;28.55;;;;;;;-4.32;100.00;100958.56;4980633;28;20041;-79
2022/12/22 06:18:34;;;;;;;45.35;21.90;;;;;;;-3.97;100.00;101036.94;4998811;28;20499;-76
2022/12/22 06:21:00;;;;;;;61.45;26.17;;;;;;;-3.57;100.00;101087.47;4999831;28;20076;-76
2022/12/22 06:23:25;;;;;;;60.28;23.83;;;;;;;-3.99;100.00;101061.59;4999232;28;20892;-77
2022/12/22 06:25:59;;;;;;;55.38;27.20;;;;;;;-4.44;100.00;100947.50;5004760;28;20057;-76
2022/12/22 06:28:25;;;;;;;51.70;20.33;;;;;;;-3.82;100.00;101019.16;5008449;28;20068;-78
2022/12/22 06:30:50;;;;;;;52.13;26.83;;;;;;;-3.49;100.00;101106.81;5003236;28;20421;-77
2022/12/22 06:33:16;;;;;;;67.75;29.23;;;;;;;-4.35;100.00;100960.94;5004872;28;20053;-76
2022/12/22 06:35:42;;;;;;;60.85;25.65;;;;;;;-3.76;100.00;101081.09;5006875;28;20516;-75
2022/12/22 06:38:07;;;;;;;56.22;22.58;;;;;;;-3.72;100.00;101105.25;5004368;28;20062;-78
2022/12/22 06:40:33;;;;;;;53.90;22.20;;;;;;;-3.96;100.00;101086.53;5004826;28;20128;-76
2022/12/22 06:43:07;;;;;;;52.38;25.55;;;;;;;-3.93;100.00;101071.38;4991379;28;20054;-76
2022/12/22 06:45:33;;;;;;;42.75;23.95;;;;;;;-3.70;100.00;101062.66;5004342;28;20033;-78
2022/12/22 06:47:59;;;;;;;54.08;24.52;;;;;;;-3.68;100.00;101097.88;5007478;28;20038;-77
2022/12/22 06:50:24;;;;;;;45.10;22.48;;;;;;;-3.84;100.00;101079.66;5007789;28;20788;-76
2022/12/22 06:52:50;;;;;;;53.95;24.50;;;;;;;-3.54;100.00;101093.69;5005466;28;20049;-77
2022/12/22 06:55:15;;;;;;;63.15;22.65;;;;;;;-3.89;100.00;101020.41;4985937;28;20093;-76
2022/12/22 06:57:41;;;;;;;51.25;27.05;;;;;;;-4.38;100.00;100914.59;5006801;28;20142;-77
2022/12/22 07:00:07;;;;;;;56.15;21.10;;;;;;;-4.61;100.00;100912.16;5004797;28;20030;-75
2022/12/22 07:02:32;;;;;;;54.40;22.63;;;;;;;-3.75;100.00;101039.28;5004037;28;20536;-77
2022/12/22 07:04:58;;;;;;;68.68;23.35;;;;;;;-3.53;100.00;101058.69;4994647;28;20053;-78
2022/12/22 07:07:23;;;;;;;51.85;22.83;;;;;;;-4.06;100.00;100954.31;5003471;28;20128;-76
2022/12/22 07:09:49;;;;;;;49.35;23.88;;;;;;;-3.54;100.00;101015.84;5007513;28;20068;-75
2022/12/22 07:12:14;;;;;;;57.28;22.92;;;;;;;-2.99;100.00;101093.91;5002126;28;20072;-75
2022/12/22 07:14:40;;;;;;;50.63;23.52;;;;;;;-3.17;100.00;101051.63;5002815;28;20042;-77
2022/12/22 07:17:05;;;;;;;65.45;23.98;;;;;;;-3.81;100.00;100923.53;5006755;28;20052;-77
2022/12/22 07:19:31;;;;;;;69.60;25.83;;;;;;;-3.69;100.00;100941.38;5006215;28;20100;-78
2022/12/22 07:21:56;;;;;;;57.70;27.08;;;;;;;-3.01;100.00;101078.38;5004154;28;20053;-78
2022/12/22 07:24:24;;;;;;;56.97;24.92;;;;;;;-3.06;100.00;101038.72;5004608;28;20034;-77
2022/12/22 07:26:50;;;;;;;52.53;25.27;;;;;;;-2.91;100.00;101049.06;5003462;28;20030;-78
2022/12/22 07:29:16;;;;;;;71.80;30.55;;;;;;;-3.09;100.00;101042.75;5006590;28;20061;-77
2022/12/22 07:31:42;;;;;;;59.83;25.00;;;;;;;-3.48;100.00;100957.28;5005525;28;20050;-76
2022/12/22 07:34:07;;;;;;;49.10;22.77;;;;;;;-2.72;100.00;101078.50;4996384;28;20533;-76
2022/12/22 07:36:34;;;;;;;61.38;24.23;;;;;;;-2.55;100.00;101085.59;5004197;28;20672;-75
2022/12/22 07:39:00;;;;;;;67.25;27.80;;;;;;;-3.36;100.00;100939.22;5002255;28;20034;-74
2022/12/22 07:44:09;;;;;;;54.80;24.58;;;;;;;-2.57;100.00;101048.66;5002521;28;20056;-78
2022/12/22 07:46:37;;;;;;;54.72;26.27;;;;;;;-3.17;100.00;100962.69;5000011;28;20418;-76
2022/12/22 07:51:48;;;;;;;62.60;27.00;;;;;;;-2.51;100.00;101076.41;5000560;28;20517;-76
2022/12/22 07:54:16;;;;;;;68.00;28.58;;;;;;;-3.27;100.00;100934.69;5002863;28;20062;-76
2022/12/22 07:56:43;;;;;;;65.65;28.42;;;;;;;-2.82;100.00;101066.75;5001506;28;20192;-76
2022/12/22 07:59:09;;;;;;;70.43;26.50;;;;;;;-2.90;100.00;101012.34;4984217;28;20111;-75
2022/12/22 08:01:34;;;;;;;50.05;26.77;;;;;;;-2.74;100.00;101006.47;4999731;28;20468;-77
2022/12/22 08:04:00;;;;;;;68.35;29.85;;;;;;;-2.51;100.00;101043.88;4997061;28;20062;-76
2022/12/22 08:06:25;;;;;;;73.45;27.67;;;;;;;-2.67;100.00;101072.88;5001988;28;20030;-78
2022/12/22 08:08:51;;;;;;;56.88;25.58;;;;;;;-3.02;100.00;101068.94;4998768;28;20804;-76
2022/12/22 08:11:17;;;;;;;56.53;27.63;;;;;;;-3.44;100.00;100947.31;4999411;28;20145;-79
2022/12/22 08:13:42;;;;;;;58.20;25.65;;;;;;;-2.94;100.00;101065.97;5001491;28;20411;-77
2022/12/22 08:16:10;;;;;;;75.25;26.90;;;;;;;-2.97;100.00;101035.84;4998044;28;20587;-76
2022/12/22 08:18:37;;;;;;;56.05;24.10;;;;;;;-2.50;100.00;101101.31;4997791;28;20050;-76
2022/12/22 08:21:04;;;;;;;53.83;22.45;;;;;;;-3.24;100.00;100948.56;4996845;28;20038;-76
2022/12/22 08:23:30;;;;;;;50.65;23.48;;;;;;;-3.09;100.00;100952.91;5002378;28;20113;-78
2022/12/22 08:26:07;;;;;;;68.47;25.77;;;;;;;-2.97;100.00;100979.38;4994896;28;20505;-77
2022/12/22 08:28:40;;;;;;;59.05;25.85;;;;;;;-2.39;100.00;101069.44;4984581;28;20489;-76
2022/12/22 08:31:06;;;;;;;60.92;27.70;;;;;;;-2.32;100.00;101069.03;4999917;28;20115;-76
2022/12/22 08:33:32;;;;;;;53.17;25.80;;;;;;;-2.34;100.00;101053.53;4996403;28;20304;-76
2022/12/22 08:35:58;;;;;;;71.78;26.08;;;;;;;-2.14;100.00;101072.75;4999007;28;20472;-76
2022/12/22 08:38:24;;;;;;;70.85;28.02;;;;;;;-2.33;100.00;101037.31;5000209;28;20161;-77
2022/12/22 08:40:50;;;;;;;59.40;28.02;;;;;;;-2.38;100.00;101036.16;4997077;28;20482;-76
2022/12/22 08:43:17;;;;;;;56.60;25.27;;;;;;;-2.26;100.00;101064.28;5001943;28;20128;-76
2022/12/22 08:45:43;;;;;;;46.92;23.85;;;;;;;-3.20;100.00;100899.22;5001535;28;20061;-76
2022/12/22 08:48:09;;;;;;;57.75;23.17;;;;;;;-3.40;100.00;100833.81;5001284;28;20088;-75
2022/12/22 08:50:35;;;;;;;71.93;29.80;;;;;;;-2.50;100.00;101048.25;4996838;28;20120;-75
2022/12/22 08:53:05;;;;;;;58.35;27.55;;;;;;;-2.93;100.00;100939.38;5002410;28;20485;-76
2022/12/22 08:55:31;;;;;;;63.00;25.30;;;;;;;-2.22;100.00;101044.81;4997312;28;20081;-76
2022/12/22 08:57:56;;;;;;;59.78;25.55;;;;;;;-2.04;100.00;101029.59;5002027;28;20053;-78
2022/12/22 09:00:22;;;;;;;66.90;25.90;;;;;;;-2.09;100.00;101043.88;4996267;28;20053;-77
2022/12/22 09:02:47;;;;;;;63.55;24.55;;;;;;;-2.04;100.00;101024.47;4998921;28;20045;-75
2022/12/22 09:05:13;;;;;;;61.00;25.15;;;;;;;-2.74;100.00;100875.50;4996060;28;20057;-77
2022/12/22 09:07:39;;;;;;;69.13;29.80;;;;;;;-2.65;100.00;100913.69;4985047;28;20537;-75
2022/12/22 09:10:07;;;;;;;64.55;25.85;;;;;;;-2.96;100.00;100829.69;4985865;28;20062;-76
2022/12/22 09:12:33;;;;;;;53.55;23.38;;;;;;;-2.67;100.00;100887.94;4977685;28;20045;-75
2022/12/22 09:14:58;;;;;;;70.07;28.13;;;;;;;-1.76;100.00;101027.00;4988025;28;20038;-77
2022/12/22 09:17:23;;;;;;;57.58;24.38;;;;;;;-1.83;100.00;101001.72;4969503;28;20061;-77
2022/12/22 09:19:49;;;;;;;52.30;26.30;;;;;;;-1.61;100.00;101016.75;4982712;28;20096;-75
2022/12/22 09:22:14;;;;;;;62.40;28.75;;;;;;;-1.65;100.00;100994.19;4986181;28;20426;-78
2022/12/22 09:24:40;;;;;;;70.95;25.33;;;;;;;-1.48;100.00;101016.63;5002858;28;20748;-76
2022/12/22 09:27:07;;;;;;;73.80;25.20;;;;;;;-2.39;100.00;100869.94;5003132;28;20096;-77
2022/12/22 09:29:34;;;;;;;72.82;29.40;;;;;;;-1.86;100.00;100962.97;4997733;28;20045;-75
2022/12/22 09:31:59;;;;;;;70.53;28.10;;;;;;;-2.07;100.00;100898.31;4998414;28;20046;-77
2022/12/22 09:34:24;;;;;;;59.45;28.10;;;;;;;-1.69;100.00;100969.97;4995327;28;20180;-77
2022/12/22 09:36:50;;;;;;;63.92;27.13;;;;;;;-1.74;100.00;100974.84;4999434;28;20042;-77
2022/12/22 09:39:17;;;;;;;54.22;26.20;;;;;;;-2.21;100.00;100858.94;4998839;28;20153;-77
2022/12/22 09:41:51;;;;;;;64.28;26.38;;;;;;;-1.84;100.00;100995.69;5001347;28;20041;-76
2022/12/22 09:44:25;;;;;;;62.03;27.95;;;;;;;-2.32;100.00;100842.88;4997028;28;20057;-79
2022/12/22 09:46:53;;;;;;;71.75;24.50;;;;;;;-1.96;100.00;100892.13;4996333;28;20133;-78
2022/12/22 09:49:21;;;;;;;59.88;29.88;;;;;;;-1.58;100.00;100950.00;4996742;28;20145;-78
2022/12/22 09:51:53;;;;;;;69.22;32.35;;;;;;;-1.40;100.00;100968.22;4980920;28;20533;-78
2022/12/22 09:54:20;;;;;;;69.77;28.53;;;;;;;-1.84;100.00;100981.94;5000239;28;20034;-78
2022/12/22 09:56:46;;;;;;;55.65;26.20;;;;;;;-1.60;100.00;100972.19;4979668;28;20434;-78
2022/12/22 09:59:14;;;;;;;90.57;33.10;;;;;;;-2.89;100.00;100805.25;4997630;28;20054;-76
2022/12/22 10:02:22;;;;;;;66.00;27.67;;;;;;;-1.41;100.00;100985.31;4997533;28;20076;-79
2022/12/22 10:05:07;;;;;;;57.75;26.52;;;;;;;-1.29;100.00;100951.66;4986170;28;20070;-78
2022/12/22 10:07:35;;;;;;;73.90;26.67;;;;;;;-2.18;100.00;100839.47;4996460;28;20060;-76
2022/12/22 10:10:23;;;;;;;54.33;27.33;;;;;;;-2.26;100.00;100832.97;4997695;28;20162;-76
2022/12/22 10:12:50;;;;;;;67.25;28.25;;;;;;;-1.59;100.00;100944.00;4997657;28;20837;-76
2022/12/22 10:15:15;;;;;;;57.45;26.17;;;;;;;-2.26;100.00;100802.13;4999031;28;20040;-77
2022/12/22 10:17:41;;;;;;;59.00;26.80;;;;;;;-1.19;100.00;100935.94;4986782;28;20047;-76
2022/12/22 10:20:26;;;;;;;59.80;30.10;;;;;;;-0.93;100.00;100962.25;4977438;28;20138;-78
2022/12/22 10:22:57;;;;;;;58.28;26.17;;;;;;;-0.83;100.00;100948.19;4994853;28;20107;-76
2022/12/22 10:25:33;;;;;;;62.58;23.27;;;;;;;-0.95;100.00;100908.06;4998869;28;20132;-78
2022/12/22 10:28:03;;;;;;;65.32;26.98;;;;;;;-0.97;100.00;100908.78;4997224;28;20056;-76
2022/12/22 10:30:34;;;;;;;52.88;26.38;;;;;;;-1.52;100.00;100816.56;4999855;28;20033;-78
2022/12/22 10:33:07;;;;;;;65.90;28.83;;;;;;;-1.15;100.00;100921.53;4996147;28;20037;-78
2022/12/22 10:35:49;;;;;;;68.20;26.92;;;;;;;-1.23;100.00;100925.38;5000175;28;20054;-78
2022/12/22 10:38:30;;;;;;;63.72;27.60;;;;;;;-0.88;100.00;100924.75;4995598;28;20111;-75
2022/12/22 10:40:58;;;;;;;55.33;27.77;;;;;;;-1.15;100.00;100803.09;4999389;28;20058;-76
2022/12/22 10:43:28;;;;;;;55.47;26.75;;;;;;;-0.17;100.00;100915.56;5010856;28;20046;-76
2022/12/22 10:45:57;;;;;;;65.93;30.90;;;;;;;0.25;100.00;100908.22;5002993;28;20050;-76
2022/12/22 10:48:32;;;;;;;65.03;29.27;;;;;;;-0.36;100.00;100762.50;4978841;28;20038;-77
2022/12/22 10:50:59;;;;;;;63.30;30.40;;;;;;;-0.08;100.00;100798.28;4986562;28;20066;-78
2022/12/22 10:53:48;;;;;;;62.38;28.10;;;;;;;-0.51;100.00;100746.28;4992575;28;20050;-78
2022/12/22 10:56:29;;;;;;;71.18;31.50;;;;;;;-0.82;100.00;100746.41;4987367;28;20158;-78
2022/12/22 10:58:56;;;;;;;50.80;29.17;;;;;;;-0.16;100.00;100892.44;4982513;28;20790;-76
2022/12/22 11:01:36;;;;;;;74.72;33.70;;;;;;;-0.45;100.00;100860.88;4981366;28;20111;-75
2022/12/22 11:04:23;;;;;;;54.40;25.52;;;;;;;-0.44;100.00;100872.09;4987119;28;20429;-77
2022/12/22 11:06:49;;;;;;;60.65;29.88;;;;;;;-0.26;100.00;100847.25;4979582;28;20138;-76
2022/12/22 11:09:15;;;;;;;66.40;30.52;;;;;;;-0.18;100.00;100868.25;4996528;28;20038;-78
2022/12/22 11:11:45;;;;;;;71.97;32.88;;;;;;;0.29;100.00;100872.31;4998870;28;20053;-76
2022/12/22 11:14:18;;;;;;;65.15;31.55;;;;;;;-0.28;100.00;100743.16;4999030;28;20042;-78
2022/12/22 11:17:13;;;;;;;66.07;28.48;;;;;;;0.26;100.00;100848.03;5000177;28;20057;-77
2022/12/22 11:20:09;;;;;;;68.47;32.47;;;;;;;0.28;100.00;100860.22;5000967;28;20045;-77
2022/12/22 11:22:46;;;;;;;78.10;32.63;;;;;;;-0.32;100.00;100746.38;5000298;28;20116;-75
2022/12/22 11:25:21;;;;;;;65.38;31.98;;;;;;;0.40;100.00;100854.78;5001179;28;20124;-75
2022/12/22 11:28:24;;;;;;;83.65;35.72;;;;;;;0.01;100.00;100844.28;5000503;28;20073;-76
2022/12/22 11:31:01;;;;;;;71.85;30.20;;;;;;;-0.11;100.00;100844.56;5003095;28;20054;-78
2022/12/22 11:33:42;;;;;;;70.25;32.58;;;;;;;-1.13;100.00;100707.09;5003606;28;20065;-76
2022/12/22 11:36:49;;;;;;;69.30;32.83;;;;;;;-0.13;100.00;100838.44;4997113;28;20049;-77
2022/12/22 11:39:19;;;;;;;68.43;32.70;;;;;;;-0.75;100.00;100837.00;4999274;28;20054;-78
2022/12/22 11:41:59;;;;;;;66.70;30.98;;;;;;;-0.45;100.00;100849.69;5000551;28;20034;-76
2022/12/22 11:44:50;;;;;;;64.57;30.35;;;;;;;0.16;100.00;100849.28;5015929;28;20077;-77
2022/12/22 11:47:30;;;;;;;76.70;32.20;;;;;;;0.10;100.00;100855.03;5005470;28;20493;-77
2022/12/22 11:50:22;;;;;;;65.85;28.70;;;;;;;-0.50;100.00;100820.22;4996183;28;20054;-76
2022/12/22 11:53:23;;;;;;;63.70;30.20;;;;;;;-0.42;100.00;100836.97;5003276;28;20076;-76
2022/12/22 11:56:04;;;;;;;68.82;34.42;;;;;;;-0.10;100.00;100840.28;4944386;29;20501;-75
2022/12/22 11:58:35;;;;;;;67.97;31.13;;;;;;;0.02;100.00;100835.72;4997254;28;20049;-76
2022/12/22 12:01:25;;;;;;;61.72;30.52;;;;;;;0.05;100.00;100842.72;5000290;28;20137;-75
2022/12/22 12:04:03;;;;;;;59.58;30.52;;;;;;;-0.09;100.00;100842.94;5001486;28;20050;-76
2022/12/22 12:06:56;;;;;;;62.67;30.10;;;;;;;-0.62;100.00;100840.22;4999982;28;20772;-76
2022/12/22 12:09:47;;;;;;;62.80;28.73;;;;;;;-0.33;100.00;100829.72;5000208;28;20029;-75
2022/12/22 12:12:40;;;;;;;70.45;33.00;;;;;;;-0.18;100.00;100832.16;5001566;28;20559;-79
2022/12/22 12:15:15;;;;;;;49.88;30.17;;;;;;;-0.79;100.00;100714.00;4996696;28;20117;-77
2022/12/22 12:18:02;;;;;;;79.60;32.00;;;;;;;-0.50;100.00;100738.63;4998825;28;20050;-76
2022/12/22 12:21:01;;;;;;;69.75;31.05;;;;;;;0.05;100.00;100827.22;4999175;28;20042;-75
2022/12/22 12:23:32;;;;;;;66.35;31.27;;;;;;;-0.11;100.00;100838.50;4981272;28;20387;-77
2022/12/22 12:26:14;;;;;;;78.82;36.40;;;;;;;-0.31;100.00;100781.66;4985352;28;20128;-77
2022/12/22 12:28:42;;;;;;;70.88;31.48;;;;;;;0.09;100.00;100835.19;4994959;28;20738;-77
2022/12/22 12:31:15;;;;;;;65.50;32.38;;;;;;;-0.77;100.00;100712.38;5002032;28;20137;-76
2022/12/22 12:33:51;;;;;;;70.85;30.52;;;;;;;-0.51;100.00;100748.88;4999281;28;20063;-76
2022/12/22 12:36:30;;;;;;;79.65;33.78;;;;;;;-0.66;100.00;100711.22;4988534;28;20030;-78
2022/12/22 12:39:04;;;;;;;75.70;31.33;;;;;;;-0.63;100.00;100715.66;4987425;28;20431;-78
2022/12/22 12:41:30;;;;;;;71.35;32.33;;;;;;;0.19;100.00;100837.44;5000865;28;20301;-77
2022/12/22 12:43:57;;;;;;;75.95;32.28;;;;;;;-0.95;100.00;100699.44;4981981;28;20422;-77
2022/12/22 12:46:53;;;;;;;69.47;32.83;;;;;;;0.03;100.00;100826.31;4983347;28;20117;-77
2022/12/22 12:49:33;;;;;;;80.07;35.08;;;;;;;0.13;100.00;100831.97;4968176;28;20056;-77
2022/12/22 12:52:09;;;;;;;73.93;32.72;;;;;;;0.03;100.00;100827.19;4987266;28;20054;-77
2022/12/22 12:54:40;;;;;;;58.08;31.52;;;;;;;-0.08;100.00;100787.94;4987692;28;20053;-77
2022/12/22 12:57:06;;;;;;;65.00;34.00;;;;;;;0.17;100.00;100833.00;4990875;28;20069;-77
2022/12/22 12:59:40;;;;;;;75.20;35.88;;;;;;;0.13;100.00;100833.66;4995838;28;20547;-77
2022/12/22 13:02:28;;;;;;;84.63;33.95;;;;;;;0.05;100.00;100827.22;5000430;28;20049;-76
2022/12/22 13:05:26;;;;;;;71.35;37.50;;;;;;;-0.08;100.00;100784.50;4998898;28;20848;-76
2022/12/22 13:08:09;;;;;;;76.68;33.03;;;;;;;-0.06;100.00;100783.75;4998912;28;20057;-76
2022/12/22 13:10:42;;;;;;;78.25;34.40;;;;;;;0.12;100.00;100832.78;5000947;28;20062;-76
2022/12/22 13:13:34;;;;;;;63.17;36.00;;;;;;;0.11;100.00;100824.97;4997145;28;20042;-77
2022/12/22 13:16:03;;;;;;;73.70;33.22;;;;;;;0.10;100.00;100823.22;4992824;28;20057;-75
2022/12/22 13:18:34;;;;;;;81.22;31.80;;;;;;;0.13;100.00;100831.97;4995320;28;20056;-76
2022/12/22 13:21:11;;;;;;;69.60;30.55;;;;;;;0.25;100.00;100839.41;4997833;28;20030;-79
2022/12/22 13:23:38;;;;;;;68.70;32.38;;;;;;;-0.44;100.00;100717.44;5000685;28;20140;-76
2022/12/22 13:26:17;;;;;;;78.78;36.55;;;;;;;0.21;100.00;100822.00;5001258;28;20054;-77
2022/12/22 13:29:05;;;;;;;73.03;32.60;;;;;;;0.09;100.00;100801.66;4998549;28;20245;-77
2022/12/22 13:31:35;;;;;;;86.68;35.63;;;;;;;-0.02;100.00;100793.41;4952008;28;20088;-78
2022/12/22 13:34:06;;;;;;;89.00;34.28;;;;;;;-0.41;100.00;100804.34;4997459;28;20061;-77
2022/12/22 13:36:33;;;;;;;82.82;36.65;;;;;;;-0.72;100.00;100697.16;4998076;28;20060;-76
2022/12/22 13:39:01;;;;;;;69.43;37.13;;;;;;;-0.77;100.00;100703.75;5000465;28;20108;-75
2022/12/22 13:41:27;;;;;;;88.07;37.15;;;;;;;-0.34;100.00;100754.84;4997230;28;20506;-75
2022/12/22 13:43:57;;;;;;;69.40;33.30;;;;;;;-0.84;100.00;100674.25;4995609;28;20520;-75
2022/12/22 13:46:24;;;;;;;82.53;34.15;;;;;;;-0.56;100.00;100764.09;4980850;28;20128;-77
2022/12/22 13:48:53;;;;;;;94.45;37.55;;;;;;;-0.58;100.00;100775.16;4995318;28;20050;-77
2022/12/22 13:51:23;;;;;;;70.53;32.67;;;;;;;-0.33;100.00;100805.59;4999142;28;20029;-76
2022/12/22 13:53:57;;;;;;;73.03;33.65;;;;;;;-0.29;100.00;100813.56;5001821;28;20033;-78
2022/12/22 13:56:36;;;;;;;79.18;34.72;;;;;;;-0.26;100.00;100803.44;4994377;28;20457;-77
2022/12/22 13:59:03;;;;;;;66.85;30.17;;;;;;;-1.19;100.00;100650.16;4995904;28;20042;-75
2022/12/22 14:01:28;;;;;;;63.88;36.22;;;;;;;-0.86;100.00;100776.31;4997441;28;20151;-77
2022/12/22 14:04:01;;;;;;;71.63;30.73;;;;;;;-0.68;100.00;100756.66;4998679;28;20136;-76
2022/12/22 14:06:37;;;;;;;70.78;31.63;;;;;;;-0.50;100.00;100768.66;4999137;28;20065;-75
2022/12/22 14:09:24;;;;;;;66.13;33.88;;;;;;;-0.60;100.00;100784.50;4995712;28;20091;-78
2022/12/22 14:12:02;;;;;;;61.67;27.90;;;;;;;-0.46;100.00;100789.53;4997869;28;20061;-78
2022/12/22 14:14:36;;;;;;;72.80;29.00;;;;;;;-1.18;100.00;100659.66;4991947;28;20049;-76
2022/12/22 14:17:05;;;;;;;59.13;31.48;;;;;;;-0.66;100.00;100723.22;4998475;28;20202;-77
2022/12/22 14:19:36;;;;;;;64.07;32.47;;;;;;;-1.17;100.00;100656.28;5000068;28;20068;-76
2022/12/22 14:22:05;;;;;;;80.30;32.63;;;;;;;-0.54;100.00;100793.44;4999836;28;20501;-76
2022/12/22 14:24:39;;;;;;;60.58;29.77;;;;;;;-1.24;100.00;100666.16;4997878;28;20033;-77
2022/12/22 14:27:11;;;;;;;82.60;32.97;;;;;;;-1.28;100.00;100658.28;4998100;28;20096;-77
2022/12/22 14:29:36;;;;;;;77.85;32.95;;;;;;;-0.52;100.00;100807.25;4994523;28;20045;-77
2022/12/22 14:32:02;;;;;;;83.25;32.75;;;;;;;-0.89;100.00;100776.13;4996350;28;20512;-76
2022/12/22 14:34:30;;;;;;;72.90;35.78;;;;;;;-1.42;100.00;100666.13;4999998;28;20046;-77
2022/12/22 14:36:57;;;;;;;85.40;37.80;;;;;;;-0.76;100.00;100787.97;4995915;28;20064;-76
2022/12/22 14:39:29;;;;;;;78.60;36.60;;;;;;;-0.46;100.00;100801.53;4998537;28;20603;-77
2022/12/22 14:42:12;;;;;;;61.63;32.73;;;;;;;-1.41;100.00;100627.56;4996872;28;20065;-77
2022/12/22 14:44:45;;;;;;;74.68;36.08;;;;;;;-0.72;100.00;100762.44;4986751;28;20200;-76
2022/12/22 14:47:10;;;;;;;;;;;;;;;-0.83;100.00;100786.75;5000123;28;20045;-78
2022/12/22 14:50:08;;;;;;;69.75;34.65;;;;;;;-0.72;100.00;100792.47;5000856;28;20337;-76
2022/12/22 14:52:36;;;;;;;110.05;39.05;;;;;;;-0.80;100.00;100780.88;5000396;28;20061;-76
2022/12/22 14:55:05;;;;;;;92.15;34.35;;;;;;;-0.83;100.00;100783.31;5002603;28;20045;-76
2022/12/22 14:57:40;;;;;;;97.95;39.85;;;;;;;-0.83;100.00;100783.31;4993798;28;20146;-77